Time;durP1;ratioP1;P1;durP2;ratioP2;P2;SDS_P1;SDS_P2;PMS_P1;PMS_P2;Temp;Humidity;BMP_temperature;BMP_pressure;BME280_temperature;BME280_humidity;BME280_pressure;Samples;Min_cycle;Max_cycle;Signal;HPM_P1;HPM_P2
2022/09/07 00:01:16;;;;;;;2.97;2.70;;;;;;;18.49;54.35;95378.16;5004915;28;20273;-66
2022/09/07 00:03:42;;;;;;;3.95;3.30;;;;;;;18.37;54.61;95378.91;5016124;28;20545;-70
2022/09/07 00:06:10;;;;;;;3.35;3.05;;;;;;;18.41;54.68;95380.97;5007923;28;20257;-70
2022/09/07 00:08:36;;;;;;;3.55;3.22;;;;;;;18.39;54.22;95392.81;5022562;28;20226;-65
2022/09/07 00:11:06;;;;;;;3.65;3.10;;;;;;;18.26;54.56;95383.72;5008656;28;20227;-71
2022/09/07 00:13:35;;;;;;;4.30;3.10;;;;;;;18.20;54.77;95386.31;5010484;28;20358;-67
2022/09/07 00:16:06;;;;;;;3.35;3.05;;;;;;;18.18;55.22;95386.50;5007977;28;20203;-65
2022/09/07 00:18:32;;;;;;;4.60;3.40;;;;;;;18.32;54.44;95381.31;5010205;28;20256;-70
2022/09/07 00:21:06;;;;;;;4.85;3.15;;;;;;;18.28;55.30;95380.84;5008690;28;20585;-69
2022/09/07 00:23:33;;;;;;;3.70;3.35;;;;;;;18.21;54.78;95382.66;5003882;28;20989;-71
2022/09/07 00:26:05;;;;;;;3.92;2.80;;;;;;;18.15;54.73;95380.72;5017900;28;20246;-68
2022/09/07 00:28:31;;;;;;;3.15;2.85;;;;;;;18.21;54.46;95380.81;5005747;28;20227;-71
2022/09/07 00:30:56;;;;;;;3.08;2.67;;;;;;;18.14;54.37;95376.44;5006951;28;20199;-71
2022/09/07 00:33:22;;;;;;;3.33;3.03;;;;;;;18.11;54.51;95379.47;5009818;28;20254;-72
2022/09/07 00:35:47;;;;;;;3.28;2.97;;;;;;;17.96;54.43;95384.81;5009068;28;20226;-71
2022/09/07 00:38:12;;;;;;;3.15;2.83;;;;;;;18.02;54.09;95376.94;4993824;28;20229;-70
2022/09/07 00:40:38;;;;;;;3.22;2.92;;;;;;;17.93;54.29;95386.03;4998592;28;20234;-66
2022/09/07 00:43:07;;;;;;;2.88;2.67;;;;;;;18.01;54.01;95390.41;5002699;28;20653;-71
2022/09/07 00:45:32;;;;;;;3.30;2.97;;;;;;;18.03;54.00;95385.72;5013600;28;20207;-71
2022/09/07 00:48:03;;;;;;;4.07;2.78;;;;;;;17.86;54.25;95390.47;5008791;28;20222;-70
2022/09/07 00:50:52;;;;;;;2.70;2.47;;;;;;;17.93;53.82;95380.72;4999682;28;20223;-66
2022/09/07 00:53:37;;;;;;;3.10;2.72;;;;;;;17.87;53.73;95386.78;5012925;28;20218;-71
2022/09/07 00:56:04;;;;;;;4.50;2.63;;;;;;;17.91;53.65;95381.91;5009244;28;20227;-70
2022/09/07 00:58:30;;;;;;;3.00;2.80;;;;;;;17.96;53.66;95377.69;5005916;28;20311;-70
2022/09/07 01:00:56;;;;;;;2.90;2.70;;;;;;;17.81;54.17;95380.38;5004822;28;20302;-67
2022/09/07 01:03:29;;;;;;;5.43;3.13;;;;;;;17.76;54.23;95384.59;5008161;28;20317;-68
2022/09/07 01:06:13;;;;;;;2.53;2.25;;;;;;;17.75;54.19;95373.13;5014756;28;20302;-69
2022/09/07 01:08:38;;;;;;;3.00;2.70;;;;;;;17.80;53.64;95378.75;5006492;28;20618;-70
2022/09/07 01:11:05;;;;;;;2.60;2.40;;;;;;;17.81;53.49;95368.94;5008980;28;20280;-65
2022/09/07 01:13:31;;;;;;;3.72;2.83;;;;;;;17.75;53.62;95370.47;5006436;28;20750;-65
2022/09/07 01:16:06;;;;;;;4.40;2.70;;;;;;;17.67;53.76;95378.56;5008919;28;20211;-65
2022/09/07 01:18:42;;;;;;;3.78;2.47;;;;;;;17.59;53.92;95374.19;5006411;28;20234;-68
2022/09/07 01:21:24;;;;;;;4.70;2.42;;;;;;;17.61;53.77;95372.16;4994864;28;20282;-67
2022/09/07 01:24:08;;;;;;;2.83;2.42;;;;;;;17.64;53.52;95368.28;4999069;28;20754;-65
2022/09/07 01:26:37;;;;;;;4.05;2.45;;;;;;;17.61;53.95;95373.97;5009263;28;20226;-69
2022/09/07 01:29:11;;;;;;;5.35;2.83;;;;;;;17.56;53.63;95360.41;5009300;28;20215;-70
2022/09/07 01:31:51;;;;;;;2.60;2.30;;;;;;;17.50;53.74;95361.97;4995286;28;20649;-70
2022/09/07 01:34:21;;;;;;;3.38;2.70;;;;;;;17.48;53.92;95369.34;4999873;28;20771;-69
2022/09/07 01:36:49;;;;;;;3.10;2.25;;;;;;;17.52;53.52;95367.13;5009155;28;20259;-69
2022/09/07 01:39:17;;;;;;;3.35;2.47;;;;;;;17.34;53.78;95365.66;5006770;28;20610;-69
2022/09/07 01:42:12;;;;;;;3.65;2.50;;;;;;;17.34;53.70;95370.16;5007374;28;20226;-69
2022/09/07 01:44:40;;;;;;;2.67;2.47;;;;;;;17.39;53.66;95367.78;5003811;28;20226;-71
2022/09/07 01:47:18;;;;;;;3.58;2.55;;;;;;;17.37;53.60;95361.81;5008453;28;20258;-71
2022/09/07 01:49:51;;;;;;;4.75;2.67;;;;;;;17.32;53.67;95370.38;4996541;28;20639;-70
2022/09/07 01:52:35;;;;;;;3.70;2.50;;;;;;;17.34;53.41;95368.31;5000454;28;20299;-65
2022/09/07 01:55:20;;;;;;;3.97;2.35;;;;;;;17.30;53.45;95368.91;5001897;28;20776;-70
2022/09/07 01:58:08;;;;;;;2.63;2.42;;;;;;;17.24;53.65;95361.66;5013784;28;20258;-68
2022/09/07 02:00:36;;;;;;;3.67;2.38;;;;;;;17.24;53.55;95356.31;5003705;28;20274;-65
2022/09/07 02:03:25;;;;;;;3.13;2.83;;;;;;;17.13;53.40;95369.09;4992903;28;20222;-71
2022/09/07 02:06:07;;;;;;;4.00;2.17;;;;;;;17.27;52.85;95363.94;5004316;28;20223;-66
2022/09/07 02:08:53;;;;;;;2.38;2.13;;;;;;;17.30;52.34;95363.59;5014481;28;20257;-72
2022/09/07 02:11:22;;;;;;;2.20;2.00;;;;;;;17.21;52.71;95357.53;5019439;28;20363;-70
2022/09/07 02:13:55;;;;;;;3.63;2.22;;;;;;;17.22;52.75;95358.38;4998326;28;20793;-69
2022/09/07 02:16:28;;;;;;;3.95;2.20;;;;;;;17.18;52.76;95360.56;5010125;28;20234;-66
2022/09/07 02:18:59;;;;;;;2.38;2.17;;;;;;;17.14;52.84;95362.75;5011280;28;20203;-71
2022/09/07 02:21:33;;;;;;;2.88;2.22;;;;;;;17.18;53.37;95353.41;5005468;28;20218;-69
2022/09/07 02:24:14;;;;;;;4.03;2.50;;;;;;;17.11;52.94;95351.69;5003561;28;20223;-72
2022/09/07 02:26:40;;;;;;;3.03;2.28;;;;;;;17.06;52.89;95357.53;5000951;28;20223;-66
2022/09/07 02:29:07;;;;;;;2.85;2.05;;;;;;;17.10;52.58;95350.03;5009540;28;20221;-67
2022/09/07 02:31:32;;;;;;;5.15;2.30;;;;;;;17.08;53.20;95347.56;5025185;28;20230;-71
2022/09/07 02:34:00;;;;;;;2.78;2.40;;;;;;;17.07;52.91;95351.22;5010194;28;20222;-71
2022/09/07 02:36:32;;;;;;;2.85;2.50;;;;;;;17.07;52.67;95348.56;5003643;28;20242;-71
2022/09/07 02:38:58;;;;;;;2.97;2.50;;;;;;;16.52;54.61;95353.25;5019747;28;20259;-70
2022/09/07 02:41:37;;;;;;;2.72;2.40;;;;;;;16.84;53.59;95353.13;5009495;28;20247;-71
2022/09/07 02:44:17;;;;;;;7.05;2.75;;;;;;;16.78;53.41;95353.84;5003303;28;20219;-66
2022/09/07 02:46:54;;;;;;;5.60;2.65;;;;;;;16.51;54.41;95350.75;5011061;28;20217;-71
2022/09/07 02:49:25;;;;;;;3.63;2.92;;;;;;;16.63;54.53;95352.00;5001865;28;20242;-70
2022/09/07 02:52:24;;;;;;;4.68;3.05;;;;;;;16.61;55.63;95354.00;5011807;28;20203;-66
2022/09/07 02:55:09;;;;;;;7.25;3.75;;;;;;;16.53;56.56;95360.19;5009302;28;20642;-66
2022/09/07 02:57:41;;;;;;;3.70;3.40;;;;;;;16.54;57.27;95364.53;5006944;28;20251;-72
2022/09/07 03:00:10;;;;;;;4.15;3.70;;;;;;;16.45;57.54;95359.47;5009792;28;20643;-69
2022/09/07 03:02:56;;;;;;;4.47;4.10;;;;;;;16.40;58.48;95364.47;5003284;28;20227;-70
2022/09/07 03:05:25;;;;;;;4.78;4.38;;;;;;;16.57;58.28;95365.16;5001779;28;20241;-71
2022/09/07 03:08:06;;;;;;;6.28;4.30;;;;;;;16.49;58.23;95363.38;5010133;28;20219;-67
2022/09/07 03:10:33;;;;;;;4.75;4.25;;;;;;;16.59;57.87;95361.31;5008429;28;20234;-70
2022/09/07 03:12:58;;;;;;;5.43;4.07;;;;;;;16.56;58.06;95369.63;5006649;28;20211;-70
2022/09/07 03:15:26;;;;;;;4.38;3.97;;;;;;;16.37;58.53;95370.16;5011880;28;20822;-71
2022/09/07 03:17:52;;;;;;;5.03;3.75;;;;;;;16.31;58.55;95366.38;5007295;28;20231;-68
2022/09/07 03:20:18;;;;;;;3.83;3.42;;;;;;;16.40;57.71;95364.47;5008658;28;20222;-68
2022/09/07 03:22:45;;;;;;;4.90;3.22;;;;;;;16.31;57.75;95364.53;5019417;28;20810;-71
2022/09/07 03:25:12;;;;;;;3.50;3.08;;;;;;;16.25;57.45;95357.31;5008794;28;20232;-66
2022/09/07 03:27:37;;;;;;;4.20;3.20;;;;;;;16.28;57.80;95359.59;5010856;28;20264;-71
2022/09/07 03:30:05;;;;;;;5.68;3.50;;;;;;;16.19;57.53;95354.53;5008293;28;20211;-73
2022/09/07 03:32:34;;;;;;;6.43;3.45;;;;;;;16.16;56.97;95355.72;5020844;28;20226;-69
2022/09/07 03:35:00;;;;;;;5.07;3.17;;;;;;;16.08;57.29;95363.72;5009605;28;20289;-68
2022/09/07 03:37:25;;;;;;;5.90;3.15;;;;;;;16.03;57.02;95374.03;5016500;28;20218;-71
2022/09/07 03:39:51;;;;;;;4.72;3.05;;;;;;;16.05;56.22;95372.03;5001620;28;20204;-69
2022/09/07 03:42:16;;;;;;;3.72;2.78;;;;;;;16.04;55.86;95375.72;5008401;28;20223;-69
2022/09/07 03:44:42;;;;;;;3.90;2.50;;;;;;;15.99;55.96;95367.44;5009170;28;20219;-68
2022/09/07 03:47:07;;;;;;;3.95;2.55;;;;;;;15.98;55.80;95369.25;5010637;28;20229;-71
2022/09/07 03:49:33;;;;;;;4.90;2.83;;;;;;;15.97;55.92;95372.91;5013910;28;20370;-72
2022/09/07 03:51:58;;;;;;;3.72;2.90;;;;;;;15.97;55.72;95377.41;5003099;28;20895;-72
2022/09/07 03:54:24;;;;;;;3.42;2.88;;;;;;;15.98;55.95;95377.22;5003015;28;20219;-69
2022/09/07 03:56:49;;;;;;;4.20;3.33;;;;;;;15.98;55.95;95377.22;5007676;28;20223;-69
2022/09/07 03:59:15;;;;;;;4.85;3.22;;;;;;;15.95;55.97;95382.88;5001109;28;20223;-70
2022/09/07 04:01:40;;;;;;;5.35;3.28;;;;;;;15.94;55.55;95375.09;5007566;28;20228;-70
2022/09/07 04:04:06;;;;;;;6.38;3.65;;;;;;;15.97;55.74;95380.06;5001562;28;20211;-69
2022/09/07 04:06:31;;;;;;;7.22;3.20;;;;;;;16.02;55.74;95380.34;5000727;28;20294;-66
2022/09/07 04:09:04;;;;;;;6.63;3.30;;;;;;;16.12;55.21;95382.75;5006702;28;20309;-66
2022/09/07 04:11:30;;;;;;;5.55;2.72;;;;;;;16.04;55.36;95376.53;4996345;28;20242;-69
2022/09/07 04:13:56;;;;;;;3.58;2.80;;;;;;;15.88;55.78;95387.25;5000720;28;20234;-73
2022/09/07 04:16:24;;;;;;;4.78;2.55;;;;;;;15.95;55.56;95387.34;5004415;28;20360;-66
2022/09/07 04:18:50;;;;;;;3.25;2.17;;;;;;;15.85;55.63;95383.13;5020947;28;20202;-66
2022/09/07 04:21:17;;;;;;;6.70;2.80;;;;;;;15.93;55.07;95395.50;5008798;28;20272;-66
2022/09/07 04:23:43;;;;;;;3.70;2.67;;;;;;;16.06;55.13;95392.25;5005890;28;20864;-67
2022/09/07 04:26:22;;;;;;;3.53;2.38;;;;;;;16.13;54.29;95389.72;5008024;28;20273;-68
2022/09/07 04:28:48;;;;;;;4.47;2.58;;;;;;;16.08;54.58;95398.22;5005029;28;20233;-66
2022/09/07 04:31:16;;;;;;;3.58;3.28;;;;;;;16.05;55.54;95396.75;5009305;28;20199;-66
2022/09/07 04:33:43;;;;;;;4.07;3.67;;;;;;;15.99;56.43;95397.44;5003081;28;20206;-70
2022/09/07 04:36:08;;;;;;;8.45;4.03;;;;;;;16.02;57.14;95394.44;5006090;28;20704;-70
2022/09/07 04:38:34;;;;;;;6.43;4.80;;;;;;;15.99;57.53;95400.09;5006931;28;20226;-70
2022/09/07 04:41:09;;;;;;;6.53;4.75;;;;;;;15.81;58.61;95391.59;5009168;28;20214;-70
2022/09/07 04:43:38;;;;;;;6.65;5.05;;;;;;;15.85;59.15;95392.88;5009075;28;20229;-70
2022/09/07 04:46:16;;;;;;;7.03;5.03;;;;;;;16.08;59.25;95392.91;5008561;28;20204;-69
2022/09/07 04:48:41;;;;;;;8.45;5.30;;;;;;;16.12;59.15;95391.56;5002764;28;20213;-66
2022/09/07 04:51:09;;;;;;;7.28;5.20;;;;;;;16.15;59.02;95401.00;4996364;28;20301;-66
2022/09/07 04:53:36;;;;;;;6.40;5.70;;;;;;;16.08;59.45;95398.22;4998125;28;20245;-66
2022/09/07 04:56:02;;;;;;;7.68;5.72;;;;;;;16.23;59.10;95399.09;4999812;28;20234;-69
2022/09/07 04:58:28;;;;;;;5.55;5.05;;;;;;;16.09;59.83;95406.00;5007530;28;20901;-70
2022/09/07 05:00:54;;;;;;;6.60;3.97;;;;;;;16.13;58.63;95411.78;5008556;28;20203;-67
2022/09/07 05:03:19;;;;;;;5.05;3.63;;;;;;;16.23;57.35;95404.41;5005945;28;20317;-69
2022/09/07 05:05:45;;;;;;;5.07;3.22;;;;;;;16.27;56.60;95396.91;5003888;28;20317;-67
2022/09/07 05:08:11;;;;;;;8.82;3.60;;;;;;;16.35;55.86;95409.31;5004511;28;20223;-67
2022/09/07 05:10:37;;;;;;;4.10;3.13;;;;;;;16.41;55.08;95408.56;5008416;28;20222;-69
2022/09/07 05:13:02;;;;;;;3.78;2.97;;;;;;;16.46;54.58;95406.22;5001711;28;20258;-69
2022/09/07 05:15:29;;;;;;;6.15;2.90;;;;;;;16.48;53.76;95407.69;5005600;28;20234;-68
2022/09/07 05:17:55;;;;;;;5.10;3.38;;;;;;;16.58;53.68;95412.75;5004486;28;20257;-66
2022/09/07 05:20:21;;;;;;;4.22;2.88;;;;;;;16.58;53.55;95415.41;5007864;28;21001;-70
2022/09/07 05:22:46;;;;;;;6.72;2.72;;;;;;;16.62;53.80;95410.56;5005492;28;20222;-69
2022/09/07 05:25:12;;;;;;;5.65;3.03;;;;;;;16.51;53.35;95412.63;5004863;28;20238;-66
2022/09/07 05:27:38;;;;;;;3.70;2.60;;;;;;;16.65;52.29;95415.50;5007858;28;20293;-66
2022/09/07 05:30:03;;;;;;;4.05;2.83;;;;;;;16.72;51.49;95419.94;5006648;28;20221;-69
2022/09/07 05:32:29;;;;;;;3.75;2.50;;;;;;;16.68;51.37;95408.03;5002255;28;20254;-66
2022/09/07 05:34:54;;;;;;;6.57;2.53;;;;;;;16.88;50.20;95410.19;4998014;28;20231;-71
2022/09/07 05:37:20;;;;;;;6.03;3.20;;;;;;;16.87;50.76;95411.22;5005297;28;20210;-69
2022/09/07 05:39:45;;;;;;;4.13;2.55;;;;;;;17.00;50.11;95408.75;5008425;28;20199;-70
2022/09/07 05:42:11;;;;;;;2.95;2.53;;;;;;;16.92;50.17;95403.50;5007794;28;20230;-71
2022/09/07 05:44:36;;;;;;;3.55;2.25;;;;;;;17.09;49.76;95412.16;5007972;28;20219;-68
2022/09/07 05:47:01;;;;;;;3.58;2.67;;;;;;;17.06;50.61;95408.03;5009792;28;20226;-68
2022/09/07 05:49:27;;;;;;;3.63;2.53;;;;;;;16.99;50.34;95407.09;5009547;28;20241;-70
2022/09/07 05:51:52;;;;;;;4.13;2.70;;;;;;;17.10;49.91;95400.50;5011334;28;20213;-71
2022/09/07 05:54:18;;;;;;;4.07;2.70;;;;;;;17.08;50.18;95405.16;5007067;28;20775;-66
2022/09/07 05:56:43;;;;;;;4.95;2.30;;;;;;;17.27;49.55;95401.13;5009734;28;20288;-66
2022/09/07 05:59:09;;;;;;;4.13;2.53;;;;;;;17.31;49.80;95395.28;5004433;28;20707;-70
2022/09/07 06:01:34;;;;;;;4.75;2.42;;;;;;;17.29;49.69;95401.78;5010388;28;20237;-69
2022/09/07 06:04:00;;;;;;;5.63;2.53;;;;;;;17.33;49.94;95397.75;5010317;28;20265;-71
2022/09/07 06:06:25;;;;;;;3.97;2.70;;;;;;;17.48;49.35;95400.41;5008934;28;20302;-69
2022/09/07 06:08:52;;;;;;;3.58;2.78;;;;;;;17.57;48.83;95408.09;4999449;28;21202;-71
2022/09/07 06:11:22;;;;;;;7.40;2.63;;;;;;;17.55;48.60;95411.94;5005632;28;20707;-69
2022/09/07 06:13:49;;;;;;;7.82;3.20;;;;;;;17.23;50.22;95408.66;5003073;28;20226;-69
2022/09/07 06:16:15;;;;;;;7.45;2.85;;;;;;;17.41;49.92;95410.97;5011278;28;20209;-69
2022/09/07 06:18:43;;;;;;;8.90;3.47;;;;;;;17.59;49.57;95407.94;5010520;28;20377;-69
2022/09/07 06:21:20;;;;;;;6.82;3.72;;;;;;;17.72;49.88;95408.09;5008536;28;20739;-69
2022/09/07 06:23:47;;;;;;;9.63;5.25;;;;;;;17.82;48.35;95408.63;5009758;28;20259;-68
2022/09/07 06:26:15;;;;;;;8.38;3.58;;;;;;;17.75;48.82;95406.84;5005571;28;20297;-69
2022/09/07 06:28:45;;;;;;;9.93;3.65;;;;;;;17.82;49.09;95405.97;5011374;28;20260;-71
2022/09/07 06:31:13;;;;;;;5.18;2.80;;;;;;;17.87;48.91;95415.22;5011138;28;20257;-66
2022/09/07 06:33:41;;;;;;;5.15;2.50;;;;;;;17.92;48.88;95408.34;5004355;28;20238;-71
2022/09/07 06:36:14;;;;;;;5.55;2.85;;;;;;;17.84;49.21;95416.44;5010209;28;20254;-66
2022/09/07 06:38:40;;;;;;;6.63;2.58;;;;;;;17.91;49.05;95422.66;4995910;28;20759;-70
2022/09/07 06:41:07;;;;;;;5.53;2.88;;;;;;;17.96;48.84;95414.94;5005533;28;20309;-69
2022/09/07 06:43:34;;;;;;;5.18;2.72;;;;;;;18.12;47.74;95415.69;5002684;28;20234;-67
2022/09/07 06:45:59;;;;;;;5.50;3.10;;;;;;;17.84;49.23;95416.44;5009543;28;20295;-69
2022/09/07 06:48:25;;;;;;;6.80;2.80;;;;;;;18.02;48.36;95406.19;5010900;28;20301;-65
2022/09/07 06:51:17;;;;;;;5.65;3.00;;;;;;;18.07;48.65;95417.09;5009628;28;20712;-71
2022/09/07 06:53:43;;;;;;;4.05;2.80;;;;;;;18.15;48.03;95415.31;4969170;28;20807;-67
2022/09/07 06:56:12;;;;;;;4.50;3.75;;;;;;;18.18;48.25;95421.09;4955760;28;20224;-68
2022/09/07 06:58:38;;;;;;;5.25;2.80;;;;;;;18.01;48.39;95420.50;4957571;28;20269;-65
2022/09/07 07:01:06;;;;;;;7.30;2.80;;;;;;;17.72;49.00;95423.19;4952921;28;20212;-68
2022/09/07 07:03:32;;;;;;;3.75;2.72;;;;;;;17.98;48.88;95428.03;4975893;28;20212;-69
2022/09/07 07:05:58;;;;;;;3.90;2.97;;;;;;;18.17;48.69;95426.59;4979236;28;20240;-71
2022/09/07 07:08:24;;;;;;;6.15;2.60;;;;;;;18.31;48.02;95431.06;4954425;28;20234;-69
2022/09/07 07:10:51;;;;;;;6.13;2.70;;;;;;;18.48;47.88;95435.13;4953839;28;20232;-69
2022/09/07 07:13:17;;;;;;;4.50;2.70;;;;;;;18.53;48.05;95431.91;4968835;28;20215;-71
2022/09/07 07:15:43;;;;;;;7.38;2.90;;;;;;;18.63;47.47;95435.06;4954560;28;20709;-71
2022/09/07 07:18:09;;;;;;;3.90;2.22;;;;;;;18.68;46.84;95434.47;4975534;28;20307;-71
2022/09/07 07:20:36;;;;;;;5.05;2.53;;;;;;;18.79;46.57;95434.00;4973477;28;20228;-71
2022/09/07 07:23:02;;;;;;;6.32;2.50;;;;;;;18.83;46.61;95432.59;4954637;28;20228;-71
2022/09/07 07:25:28;;;;;;;8.10;2.13;;;;;;;18.84;46.41;95438.72;4953972;28;20270;-71
2022/09/07 07:27:53;;;;;;;3.92;2.30;;;;;;;18.81;46.43;95423.94;4954400;28;21002;-71
2022/09/07 07:30:20;;;;;;;2.97;2.47;;;;;;;18.81;46.38;95423.13;4954959;28;20237;-66
2022/09/07 07:32:46;;;;;;;6.93;5.63;;;;;;;18.97;46.17;95432.69;5009861;28;20595;-66
2022/09/07 07:35:13;;;;;;;6.10;3.80;;;;;;;18.91;46.40;95435.09;5011311;28;20633;-66
2022/09/07 07:37:38;;;;;;;3.85;2.47;;;;;;;19.02;46.55;95431.09;5010997;28;20243;-67
2022/09/07 07:40:07;;;;;;;4.28;2.20;;;;;;;19.11;45.85;95437.94;5004310;28;20229;-67
2022/09/07 07:42:34;;;;;;;5.18;3.03;;;;;;;19.10;46.43;95435.44;5008880;28;20249;-66
2022/09/07 07:45:03;;;;;;;5.20;2.40;;;;;;;19.16;46.21;95434.66;5006469;28;20243;-66
2022/09/07 07:47:29;;;;;;;5.43;2.67;;;;;;;19.14;46.25;95436.72;5006050;28;20233;-69
2022/09/07 07:49:54;;;;;;;3.38;2.47;;;;;;;19.22;45.98;95436.56;5009648;28;20234;-70
2022/09/07 07:52:20;;;;;;;3.00;2.40;;;;;;;19.18;47.02;95436.13;5010214;28;20198;-69
2022/09/07 07:54:46;;;;;;;5.43;2.72;;;;;;;19.33;46.20;95437.88;5007120;28;20350;-70
2022/09/07 07:57:11;;;;;;;3.63;2.53;;;;;;;19.32;46.21;95444.19;5015315;28;20235;-68
2022/09/07 07:59:38;;;;;;;4.53;2.65;;;;;;;19.47;46.72;95444.09;5006041;28;20234;-70
2022/09/07 08:02:08;;;;;;;7.07;2.47;;;;;;;19.52;45.72;95441.66;4997696;28;20781;-70
2022/09/07 08:04:34;;;;;;;5.03;2.53;;;;;;;19.27;46.42;95434.16;5009483;28;20272;-70
2022/09/07 08:07:00;;;;;;;4.88;2.58;;;;;;;19.13;46.43;95433.22;5005633;28;20214;-70
2022/09/07 08:09:26;;;;;;;8.32;2.97;;;;;;;19.43;46.04;95437.50;5009835;28;20699;-70
2022/09/07 08:11:51;;;;;;;3.40;2.45;;;;;;;19.53;46.24;95436.13;5010166;28;20301;-70
2022/09/07 08:14:17;;;;;;;4.22;2.72;;;;;;;19.67;46.09;95425.56;5008016;28;20223;-70
2022/09/07 08:16:43;;;;;;;4.10;2.47;;;;;;;19.77;46.32;95426.00;5006588;28;20223;-70
2022/09/07 08:19:08;;;;;;;4.90;2.83;;;;;;;19.81;45.51;95436.09;5004148;28;20212;-70
2022/09/07 08:21:34;;;;;;;3.10;2.65;;;;;;;19.84;44.63;95434.88;5016004;28;20728;-70
2022/09/07 08:23:59;;;;;;;4.20;2.92;;;;;;;19.90;44.61;95434.06;5007063;28;20219;-70
2022/09/07 08:26:26;;;;;;;5.63;3.55;;;;;;;19.89;44.94;95427.09;5009793;28;20226;-70
2022/09/07 08:28:52;;;;;;;5.63;3.10;;;;;;;19.89;44.40;95435.09;5010100;28;20268;-70
2022/09/07 08:31:17;;;;;;;3.65;2.70;;;;;;;19.96;44.58;95433.25;5001919;28;20206;-70
2022/09/07 08:33:43;;;;;;;2.97;2.60;;;;;;;20.01;45.60;95428.16;5006670;28;20250;-70
2022/09/07 08:36:15;;;;;;;3.72;2.75;;;;;;;20.14;44.20;95416.69;5002927;28;20285;-70
2022/09/07 08:38:41;;;;;;;4.15;3.35;;;;;;;19.71;44.18;95419.63;5002495;28;20719;-70
2022/09/07 08:41:18;;;;;;;4.38;2.67;;;;;;;19.63;45.11;95422.44;5006794;28;20230;-70
2022/09/07 08:44:05;;;;;;;6.20;2.70;;;;;;;19.86;44.68;95413.31;5002354;28;20250;-70
2022/09/07 08:46:45;;;;;;;5.72;2.65;;;;;;;20.13;44.61;95401.72;5001601;28;20299;-71
2022/09/07 08:49:40;;;;;;;3.53;2.50;;;;;;;20.19;44.84;95402.75;5008741;28;20856;-70
2022/09/07 08:52:11;;;;;;;8.10;2.85;;;;;;;20.43;43.74;95402.19;5006060;28;20229;-70
2022/09/07 08:54:39;;;;;;;4.80;3.20;;;;;;;20.46;43.82;95403.63;5003042;28;20199;-70
2022/09/07 08:57:04;;;;;;;4.85;3.42;;;;;;;20.43;44.43;95396.03;5019396;28;20215;-70
2022/09/07 08:59:59;;;;;;;3.60;2.60;;;;;;;20.64;43.55;95398.53;5001412;28;20227;-70
2022/09/07 09:02:26;;;;;;;4.07;2.78;;;;;;;20.68;43.08;95389.06;5009311;28;20314;-70
2022/09/07 09:04:51;;;;;;;3.72;2.80;;;;;;;20.79;44.17;95384.13;5008799;28;20230;-70
2022/09/07 09:07:35;;;;;;;4.18;2.75;;;;;;;20.83;43.64;95391.53;4997837;28;20216;-70
2022/09/07 09:10:29;;;;;;;7.45;2.78;;;;;;;21.11;42.84;95385.13;5019875;28;20290;-70
2022/09/07 09:13:10;;;;;;;6.22;2.47;;;;;;;21.39;41.91;95386.75;5006580;28;20223;-70
2022/09/07 09:15:50;;;;;;;4.10;2.42;;;;;;;21.46;41.92;95380.34;5006392;28;20567;-70
2022/09/07 09:18:22;;;;;;;2.95;2.13;;;;;;;21.32;41.19;95374.19;5007742;28;20222;-70
2022/09/07 09:20:50;;;;;;;3.45;3.15;;;;;;;21.48;41.75;95374.78;5006899;28;20215;-70
2022/09/07 09:23:19;;;;;;;3.38;2.63;;;;;;;21.67;41.49;95375.75;5003344;28;20225;-70
2022/09/07 09:25:57;;;;;;;2.92;2.65;;;;;;;21.69;41.08;95368.34;5008218;28;20288;-70
2022/09/07 09:28:23;;;;;;;3.00;2.50;;;;;;;21.90;40.37;95375.25;5006542;28;20210;-70
2022/09/07 09:30:49;;;;;;;5.38;3.30;;;;;;;21.98;39.71;95367.78;5008616;28;20206;-70
2022/09/07 09:33:24;;;;;;;6.30;3.00;;;;;;;22.10;39.22;95369.78;5007084;28;20211;-70
2022/09/07 09:35:59;;;;;;;4.07;3.20;;;;;;;21.90;40.31;95354.66;5003089;28;20658;-66
2022/09/07 09:38:33;;;;;;;2.97;2.75;;;;;;;21.99;41.32;95357.88;5008846;28;20218;-71
2022/09/07 09:41:12;;;;;;;5.35;3.25;;;;;;;22.23;39.78;95353.66;5001790;28;20253;-71
2022/09/07 09:43:54;;;;;;;6.25;3.42;;;;;;;22.41;39.28;95353.75;5002000;28;20250;-71
2022/09/07 09:46:30;;;;;;;4.15;2.40;;;;;;;22.57;39.38;95352.38;5004202;28;20198;-71
2022/09/07 09:49:21;;;;;;;6.45;2.90;;;;;;;22.75;38.69;95351.63;5007948;28;20209;-72
2022/09/07 09:51:53;;;;;;;4.25;2.78;;;;;;;22.74;38.29;95355.31;5004248;28;20241;-71
2022/09/07 09:54:33;;;;;;;2.88;2.47;;;;;;;22.66;39.00;95355.59;5006739;28;20712;-70
2022/09/07 09:56:59;;;;;;;4.07;2.78;;;;;;;22.78;37.76;95343.16;4995096;28;20309;-70
2022/09/07 09:59:30;;;;;;;3.20;2.88;;;;;;;22.86;37.77;95344.72;5003813;28;20314;-71
2022/09/07 10:01:57;;;;;;;3.00;2.67;;;;;;;22.94;38.46;95344.44;5005492;28;20779;-66
2022/09/07 10:04:22;;;;;;;3.20;2.90;;;;;;;22.84;38.62;95338.75;5001187;28;20202;-66
2022/09/07 10:06:53;;;;;;;4.93;3.00;;;;;;;23.08;39.25;95345.16;5008482;28;20206;-67
2022/09/07 10:09:33;;;;;;;3.22;2.92;;;;;;;23.43;38.19;95341.91;5004915;28;20224;-66
2022/09/07 10:12:01;;;;;;;4.05;2.83;;;;;;;23.61;37.48;95336.53;5018679;28;20360;-67
2022/09/07 10:14:35;;;;;;;3.67;3.10;;;;;;;23.46;36.41;95334.22;5004988;28;20750;-66
2022/09/07 10:17:11;;;;;;;4.38;3.33;;;;;;;23.53;36.46;95326.91;5008373;28;20568;-66
2022/09/07 10:19:38;;;;;;;3.22;2.70;;;;;;;23.38;37.21;95326.47;4997870;28;20223;-66
2022/09/07 10:22:31;;;;;;;4.43;2.70;;;;;;;23.56;36.10;95326.44;5000254;28;20254;-66
2022/09/07 10:24:59;;;;;;;5.18;3.00;;;;;;;23.43;37.42;95315.88;5008304;28;20227;-66
2022/09/07 10:27:34;;;;;;;4.90;2.83;;;;;;;23.69;37.37;95297.81;5003161;28;20238;-69
2022/09/07 10:30:01;;;;;;;3.13;2.92;;;;;;;23.92;37.13;95305.16;5019882;28;20584;-69
2022/09/07 10:32:54;;;;;;;2.80;2.60;;;;;;;24.29;37.05;95310.41;5007107;28;20229;-70
2022/09/07 10:35:27;;;;;;;3.40;3.00;;;;;;;24.68;36.55;95300.13;4998303;28;20223;-66
2022/09/07 10:38:03;;;;;;;5.35;2.85;;;;;;;24.75;34.68;95303.50;5000423;28;20360;-69
2022/09/07 10:40:41;;;;;;;2.88;2.67;;;;;;;24.77;34.48;95288.75;5006680;28;20218;-69
2022/09/07 10:43:30;;;;;;;3.53;3.20;;;;;;;24.86;34.61;95294.63;5010432;28;20242;-68
2022/09/07 10:46:25;;;;;;;6.70;3.28;;;;;;;24.93;35.81;95295.31;4999234;28;20222;-70
2022/09/07 10:49:01;;;;;;;4.10;2.85;;;;;;;25.02;35.68;95293.91;5003212;28;20222;-69
2022/09/07 10:51:59;;;;;;;3.72;2.75;;;;;;;24.90;34.47;95287.72;5000988;28;20266;-69
2022/09/07 10:54:39;;;;;;;4.72;3.38;;;;;;;24.68;34.95;95283.97;4948844;28;20251;-69
2022/09/07 10:57:29;;;;;;;4.45;3.00;;;;;;;24.86;35.26;95281.19;4957056;28;20227;-70
2022/09/07 11:00:05;;;;;;;4.72;3.03;;;;;;;24.88;33.93;95284.44;4972111;28;20224;-70
2022/09/07 11:02:44;;;;;;;4.78;3.10;;;;;;;25.07;33.61;95280.56;4952720;28;20242;-70
2022/09/07 11:05:18;;;;;;;3.05;2.85;;;;;;;25.34;33.76;95281.94;4965316;28;20228;-70
2022/09/07 11:08:04;;;;;;;3.08;2.72;;;;;;;25.52;33.98;95279.91;4954838;28;20234;-70
2022/09/07 11:10:38;;;;;;;4.95;2.90;;;;;;;25.74;33.36;95273.84;4963667;28;20220;-70
2022/09/07 11:13:08;;;;;;;3.53;3.20;;;;;;;25.68;33.18;95267.56;4965988;28;20219;-66
2022/09/07 11:16:07;;;;;;;2.95;2.75;;;;;;;25.79;34.01;95271.25;4954332;28;20212;-70
2022/09/07 11:18:40;;;;;;;4.53;3.13;;;;;;;25.58;33.39;95270.06;4898944;29;20237;-72
2022/09/07 11:21:12;;;;;;;3.63;2.78;;;;;;;25.83;32.82;95266.22;4902161;29;20321;-72
2022/09/07 11:24:02;;;;;;;3.92;3.15;;;;;;;25.95;32.88;95269.69;4914288;29;20629;-72
2022/09/07 11:26:52;;;;;;;3.22;3.03;;;;;;;26.01;32.98;95257.13;4904477;29;20241;-71
2022/09/07 11:29:29;;;;;;;4.85;3.15;;;;;;;26.07;32.22;95258.88;4897840;29;20218;-72
2022/09/07 11:32:01;;;;;;;3.25;2.83;;;;;;;26.35;32.84;95252.59;4925219;29;20662;-67
2022/09/07 11:34:36;;;;;;;5.30;3.25;;;;;;;26.33;32.42;95255.56;4929223;29;20431;-67
2022/09/07 11:37:18;;;;;;;7.70;6.45;;;;;;;26.47;31.75;95253.34;4948751;29;20217;-67
2022/09/07 11:40:06;;;;;;;3.90;3.15;;;;;;;26.62;31.67;95247.38;4949781;29;20231;-67
2022/09/07 11:42:58;;;;;;;4.15;3.40;;;;;;;26.52;32.50;95239.97;4932758;29;20229;-67
2022/09/07 11:45:36;;;;;;;3.67;3.38;;;;;;;27.03;31.68;95251.50;4922303;29;20291;-67
2022/09/07 11:48:25;;;;;;;5.63;3.20;;;;;;;27.51;31.22;95249.16;4945007;29;20589;-72
2022/09/07 11:51:01;;;;;;;4.22;3.25;;;;;;;27.29;31.22;95249.13;4935114;29;20228;-67
2022/09/07 11:53:32;;;;;;;4.68;3.20;;;;;;;27.62;30.55;95237.41;4943819;29;20236;-68